createdAt,value
2023-02-03T00:01:56.455Z,96978.56
2023-02-03T00:04:22.911Z,96964.78
2023-02-03T00:06:50.822Z,96977.56
2023-02-03T00:09:17.728Z,96984.88
2023-02-03T00:11:44.214Z,96968.66
2023-02-03T00:14:10.665Z,96984.44
2023-02-03T00:16:37.359Z,96986.78
2023-02-03T00:19:03.852Z,96980.22
2023-02-03T00:21:30.288Z,96982.06
2023-02-03T00:23:56.744Z,96970.97
2023-02-03T00:26:25.044Z,96976.72
2023-02-03T00:28:51.695Z,96964.41
2023-02-03T00:31:24.457Z,96981.94
2023-02-03T00:33:57.789Z,96975.53
2023-02-03T00:36:25.761Z,96937.47
2023-02-03T00:38:52.655Z,96971.66
2023-02-03T00:41:19.881Z,96968.25
2023-02-03T00:43:46.394Z,96961.94
2023-02-03T00:46:14.284Z,96982.91
2023-02-03T00:48:40.907Z,96992.75
2023-02-03T00:51:07.620Z,96977.75
2023-02-03T00:53:34.061Z,96976.28
2023-02-03T00:56:01.497Z,96976.44
2023-02-03T00:58:27.959Z,96982.25
2023-02-03T01:00:56.862Z,96979.06
2023-02-03T01:03:24.529Z,96963.13
2023-02-03T01:05:51.268Z,96977.50
2023-02-03T01:08:19.510Z,96987.47
2023-02-03T01:10:45.936Z,96973.88
2023-02-03T01:13:12.477Z,96978.72
2023-02-03T01:15:45.621Z,96981.53
2023-02-03T01:18:12.142Z,96988.28
2023-02-03T01:20:38.546Z,96977.06
2023-02-03T01:23:05.037Z,96983.88
2023-02-03T01:25:31.493Z,96991.44
2023-02-03T01:27:57.921Z,96973.03
2023-02-03T01:30:25.011Z,96979.91
2023-02-03T01:32:51.714Z,96966.22
2023-02-03T01:35:18.389Z,96967.72
2023-02-03T01:37:44.794Z,96959.69
2023-02-03T01:40:11.796Z,96966.91
2023-02-03T01:42:38.386Z,96975.91
2023-02-03T01:45:05.257Z,96948.78
2023-02-03T01:47:39.825Z,96966.84
2023-02-03T01:50:15.575Z,96972.06
2023-02-03T01:52:46.969Z,96931.50
2023-02-03T01:55:19.437Z,96944.81
2023-02-03T01:57:54.215Z,96975.91
2023-02-03T02:00:21.052Z,96957.25
2023-02-03T02:02:49.662Z,96963.44
2023-02-03T02:05:25.341Z,96935.81
2023-02-03T02:07:52.338Z,96930.94
2023-02-03T02:10:18.846Z,96937.63
2023-02-03T02:12:45.336Z,96944.25
2023-02-03T02:15:13.105Z,96942.66
2023-02-03T02:18:22.013Z,96963.25
2023-02-03T02:21:16.870Z,96963.56
2023-02-03T02:24:04.019Z,96958.84
2023-02-03T02:26:49.160Z,96949.72
2023-02-03T02:29:37.568Z,96957.97
2023-02-03T02:32:29.576Z,96967.72
2023-02-03T02:34:59.358Z,96966.78
2023-02-03T02:38:20.903Z,96972.56
2023-02-03T02:41:02.287Z,96960.31
2023-02-03T02:43:47.463Z,96970.69
2023-02-03T02:46:19.294Z,96973.72
2023-02-03T02:49:01.183Z,96973.84
2023-02-03T02:51:30.479Z,96969.00
2023-02-03T02:54:01.681Z,96960.59
2023-02-03T02:56:31.595Z,96956.50
2023-02-03T02:59:02.039Z,96947.75
2023-02-03T03:01:28.768Z,96921.44
2023-02-03T03:03:56.210Z,96948.28
2023-02-03T03:06:32.170Z,96956.69
2023-02-03T03:09:04.701Z,96942.59
2023-02-03T03:11:40.930Z,96961.97
2023-02-03T03:14:10.447Z,96938.47
2023-02-03T03:16:41.418Z,96949.50
2023-02-03T03:19:13.320Z,96960.25
2023-02-03T03:21:47.336Z,96958.78
2023-02-03T03:24:31.280Z,96949.06
2023-02-03T03:27:06.889Z,96945.59
2023-02-03T03:29:44.182Z,96940.44
2023-02-03T03:32:11.041Z,96922.47
2023-02-03T03:34:37.682Z,96926.19
2023-02-03T03:37:17.661Z,96939.78
2023-02-03T03:39:47.244Z,96919.97
2023-02-03T03:42:38.724Z,96916.09
2023-02-03T03:45:36.005Z,96919.72
2023-02-03T03:48:25.516Z,96898.50
2023-02-03T03:51:14.139Z,96928.88
2023-02-03T03:53:44.442Z,96921.81
2023-02-03T03:56:16.479Z,96938.25
2023-02-03T03:58:46.715Z,96935.50
2023-02-03T04:01:15.992Z,96935.13
2023-02-03T04:03:49.238Z,96946.31
2023-02-03T04:06:15.739Z,96916.31
2023-02-03T04:08:42.292Z,96903.97
2023-02-03T04:11:09.167Z,96938.19
2023-02-03T04:13:35.670Z,96942.47
2023-02-03T04:16:02.141Z,96953.94
2023-02-03T04:18:28.607Z,96957.50
2023-02-03T04:20:55.153Z,96954.41
2023-02-03T04:23:21.556Z,96946.84
2023-02-03T04:25:47.967Z,96964.06
2023-02-03T04:28:14.469Z,96958.03
2023-02-03T04:30:40.964Z,96971.28
2023-02-03T04:33:07.383Z,96970.69
2023-02-03T04:35:33.794Z,96963.00
2023-02-03T04:38:00.174Z,96930.47
2023-02-03T04:40:27.019Z,96945.44
2023-02-03T04:42:53.598Z,96947.91
2023-02-03T04:45:20.021Z,96964.72
2023-02-03T04:47:54.142Z,96980.47
2023-02-03T04:50:20.999Z,96971.00
2023-02-03T04:52:47.513Z,96978.81
2023-02-03T04:55:13.960Z,96960.97
2023-02-03T04:57:40.357Z,96961.66
2023-02-03T05:00:07.485Z,96974.28
2023-02-03T05:02:33.911Z,96970.97
2023-02-03T05:05:00.308Z,96968.09
2023-02-03T05:07:26.737Z,96977.34
2023-02-03T05:09:53.168Z,96959.44
2023-02-03T05:12:19.584Z,96946.63
2023-02-03T05:14:45.966Z,96966.06
2023-02-03T05:17:12.520Z,96960.06
2023-02-03T05:19:39.066Z,96973.13
2023-02-03T05:22:05.488Z,96979.91
2023-02-03T05:24:31.994Z,96949.53
2023-02-03T05:26:58.422Z,96965.28
2023-02-03T05:29:24.829Z,96930.09
2023-02-03T05:31:51.335Z,96946.03
2023-02-03T05:34:17.855Z,96935.97
2023-02-03T05:36:44.378Z,96934.13
2023-02-03T05:39:10.820Z,96930.44
2023-02-03T05:41:52.367Z,96940.19
2023-02-03T05:44:25.417Z,96932.19
2023-02-03T05:46:59.350Z,96934.22
2023-02-03T05:49:25.836Z,96913.16
2023-02-03T05:51:53.814Z,96923.03
2023-02-03T05:54:20.471Z,96915.88
2023-02-03T05:56:47.048Z,96924.75
2023-02-03T05:59:13.504Z,96940.81
2023-02-03T06:01:39.951Z,96924.34
2023-02-03T06:04:06.585Z,96922.75
2023-02-03T06:06:33.915Z,96918.31
2023-02-03T06:09:01.991Z,96935.91
2023-02-03T06:11:28.757Z,96932.72
2023-02-03T06:13:58.516Z,96934.09
2023-02-03T06:16:26.279Z,96925.94
2023-02-03T06:18:53.875Z,96925.38
2023-02-03T06:21:22.119Z,96934.38
2023-02-03T06:23:48.715Z,96914.75
2023-02-03T06:26:15.231Z,96932.59
2023-02-03T06:28:42.676Z,96950.63
2023-02-03T06:31:09.231Z,96971.44
2023-02-03T06:33:35.855Z,96960.94
2023-02-03T06:36:02.288Z,96935.09
2023-02-03T06:38:28.738Z,96923.66
2023-02-03T06:40:55.125Z,96918.13
2023-02-03T06:43:22.199Z,96917.41
2023-02-03T06:45:48.617Z,96937.44
2023-02-03T06:48:15.384Z,96936.47
2023-02-03T06:50:42.133Z,96960.19
2023-02-03T06:53:08.708Z,96964.84
2023-02-03T06:55:35.132Z,96961.53
2023-02-03T06:58:01.661Z,96977.94
2023-02-03T07:00:28.533Z,96968.66
2023-02-03T07:02:57.410Z,96965.28
2023-02-03T07:05:24.379Z,96973.59
2023-02-03T07:07:52.010Z,96973.66
2023-02-03T07:10:18.879Z,96965.19
2023-02-03T07:12:45.342Z,96934.16
2023-02-03T07:15:13.100Z,96953.19
2023-02-03T07:17:39.537Z,96944.56
2023-02-03T07:20:06.991Z,96947.91
2023-02-03T07:22:33.464Z,96923.09
2023-02-03T07:24:59.862Z,96921.09
2023-02-03T07:27:27.902Z,96938.47
2023-02-03T07:29:54.344Z,96920.31
2023-02-03T07:32:20.722Z,96918.06
2023-02-03T07:34:47.118Z,96900.34
2023-02-03T07:37:13.511Z,96921.34
2023-02-03T07:39:39.903Z,96922.44
2023-02-03T07:42:06.568Z,96903.47
2023-02-03T07:44:36.765Z,96919.88
2023-02-03T07:47:03.215Z,96916.38
2023-02-03T07:49:29.641Z,96902.38
2023-02-03T07:51:56.580Z,96903.91
2023-02-03T07:54:23.000Z,96898.59
2023-02-03T07:56:49.447Z,96906.06
2023-02-03T07:59:16.985Z,96901.41
2023-02-03T08:01:43.514Z,96900.31
2023-02-03T08:04:12.068Z,96904.03
2023-02-03T08:06:38.514Z,96903.19
2023-02-03T08:09:04.963Z,96916.47
2023-02-03T08:11:32.531Z,96898.28
2023-02-03T08:13:59.060Z,96902.16
2023-02-03T08:16:25.487Z,96921.75
2023-02-03T08:18:52.099Z,96940.88
2023-02-03T08:21:18.503Z,96929.09
2023-02-03T08:23:44.959Z,96934.16
2023-02-03T08:26:11.407Z,96921.75
2023-02-03T08:28:37.860Z,96928.72
2023-02-03T08:31:10.626Z,96929.88
2023-02-03T08:33:37.138Z,96947.44
2023-02-03T08:36:05.692Z,96956.78
2023-02-03T08:38:32.321Z,96942.59
2023-02-03T08:40:59.005Z,96955.19
2023-02-03T08:43:25.410Z,96953.28
2023-02-03T08:45:52.001Z,96938.75
2023-02-03T08:48:18.491Z,96919.19
2023-02-03T08:50:51.816Z,96917.25
2023-02-03T08:53:18.788Z,96908.06
2023-02-03T08:55:45.240Z,96903.91
2023-02-03T08:58:11.733Z,96902.97
2023-02-03T09:00:38.320Z,96926.25
2023-02-03T09:03:04.794Z,96885.44
2023-02-03T09:05:32.293Z,96895.22
2023-02-03T09:07:58.864Z,96909.03
2023-02-03T09:10:25.575Z,96920.56
2023-02-03T09:12:52.225Z,96918.84
2023-02-03T09:15:18.647Z,96893.34
2023-02-03T09:17:45.149Z,96898.78
2023-02-03T09:20:14.968Z,96890.16
2023-02-03T09:22:41.415Z,96883.88
2023-02-03T09:25:08.055Z,96889.72
2023-02-03T09:27:34.523Z,96891.56
2023-02-03T09:30:00.981Z,96885.75
2023-02-03T09:32:27.416Z,96909.78
2023-02-03T09:34:53.832Z,96890.13
2023-02-03T09:37:20.214Z,96872.31
2023-02-03T09:39:48.700Z,96902.41
2023-02-03T09:42:29.798Z,96912.47
2023-02-03T09:45:09.260Z,96875.78
2023-02-03T09:47:41.417Z,96896.97
2023-02-03T09:50:15.708Z,96909.94
2023-02-03T09:52:44.144Z,96907.69
2023-02-03T09:55:28.201Z,96896.53
2023-02-03T09:57:58.676Z,96903.94
2023-02-03T10:00:35.003Z,96883.41
2023-02-03T10:03:36.494Z,96880.13
2023-02-03T10:06:02.929Z,96882.28
2023-02-03T10:08:57.452Z,96886.38
2023-02-03T10:11:57.623Z,96905.19
2023-02-03T10:14:48.364Z,96904.75
2023-02-03T10:17:30.803Z,96915.22
2023-02-03T10:20:12.621Z,96918.41
2023-02-03T10:22:52.074Z,96895.50
2023-02-03T10:25:34.040Z,96874.44
2023-02-03T10:28:05.104Z,96859.94
2023-02-03T10:30:45.347Z,96894.94
2023-02-03T10:33:17.984Z,96892.66
2023-02-03T10:36:16.835Z,96892.41
2023-02-03T10:38:54.871Z,96881.84
2023-02-03T10:41:23.161Z,96888.19
2023-02-03T10:43:52.063Z,96890.94
2023-02-03T10:46:34.147Z,96897.97
2023-02-03T10:49:00.772Z,96879.19
2023-02-03T10:51:33.073Z,96883.75
2023-02-03T10:54:00.548Z,96864.03
2023-02-03T10:56:32.828Z,96917.38
2023-02-03T10:59:00.479Z,96902.19
2023-02-03T11:01:42.210Z,96905.06
2023-02-03T11:04:28.419Z,96894.44
2023-02-03T11:07:05.920Z,96896.03
2023-02-03T11:09:41.302Z,96872.78
2023-02-03T11:12:20.991Z,96868.66
2023-02-03T11:14:49.919Z,96875.72
2023-02-03T11:17:29.575Z,96848.94
2023-02-03T11:20:17.057Z,96845.41
2023-02-03T11:22:44.876Z,96871.38
2023-02-03T11:25:43.445Z,96849.41
2023-02-03T11:28:24.463Z,96753.53
2023-02-03T11:30:59.036Z,96855.50
2023-02-03T11:33:28.694Z,96830.56
2023-02-03T11:35:59.752Z,96845.00
2023-02-03T11:38:36.679Z,96820.97
2023-02-03T11:41:03.324Z,96811.06
2023-02-03T11:43:30.460Z,96829.13
2023-02-03T11:46:08.233Z,96826.97
2023-02-03T11:48:46.827Z,96828.22
2023-02-03T11:51:28.452Z,96812.81
2023-02-03T11:54:22.922Z,96801.66
2023-02-03T11:57:07.758Z,96809.28
2023-02-03T11:59:37.990Z,96817.94
2023-02-03T12:02:27.619Z,96812.13
2023-02-03T12:04:54.143Z,96809.50
2023-02-03T12:07:32.790Z,96809.31
2023-02-03T12:10:25.513Z,96793.28
2023-02-03T12:13:01.161Z,96808.53
2023-02-03T12:15:42.904Z,96802.81
2023-02-03T12:18:43.553Z,96802.47
2023-02-03T12:21:31.900Z,96791.44
2023-02-03T12:24:20.121Z,96793.13
2023-02-03T12:27:14.710Z,96770.50
2023-02-03T12:29:45.821Z,96752.16
2023-02-03T12:32:36.772Z,96752.31
2023-02-03T12:35:15.565Z,96765.19
2023-02-03T12:37:57.245Z,96751.06
2023-02-03T12:40:50.637Z,96728.47
2023-02-03T12:43:17.010Z,96737.09
2023-02-03T12:45:51.143Z,96718.16
2023-02-03T12:48:22.962Z,96715.53
2023-02-03T12:50:54.149Z,96712.78
2023-02-03T12:53:28.250Z,96705.69
2023-02-03T12:56:02.876Z,96701.47
2023-02-03T12:58:37.882Z,96711.41
2023-02-03T13:01:24.412Z,96697.50
2023-02-03T13:04:12.950Z,96712.44
2023-02-03T13:07:10.811Z,96704.09
2023-02-03T13:09:45.824Z,96698.53
2023-02-03T13:12:24.000Z,96701.91
2023-02-03T13:15:06.349Z,96704.31
2023-02-03T13:17:42.132Z,96711.97
2023-02-03T13:20:21.851Z,96689.94
2023-02-03T13:22:48.388Z,96702.47
2023-02-03T13:25:22.445Z,96700.25
2023-02-03T13:28:06.442Z,96701.69
2023-02-03T13:30:46.424Z,96678.31
2023-02-03T13:33:40.240Z,96676.97
2023-02-03T13:36:24.846Z,96679.59
2023-02-03T13:39:09.748Z,96686.66
2023-02-03T13:41:53.501Z,96663.41
2023-02-03T13:44:28.333Z,96652.16
2023-02-03T13:46:57.826Z,96664.38
2023-02-03T13:49:34.882Z,96640.22
2023-02-03T13:52:01.690Z,96624.72
2023-02-03T13:54:36.087Z,96641.66
2023-02-03T13:57:05.888Z,96635.69
2023-02-03T13:59:38.700Z,96642.59
2023-02-03T14:02:23.536Z,96635.13
2023-02-03T14:04:56.273Z,96628.19
2023-02-03T14:07:40.955Z,96626.38
2023-02-03T14:10:15.482Z,96628.31
2023-02-03T14:12:51.059Z,96611.94
2023-02-03T14:15:23.583Z,96587.41
2023-02-03T14:17:50.099Z,96584.34
2023-02-03T14:20:25.876Z,96595.09
2023-02-03T14:23:07.651Z,96598.59
2023-02-03T14:25:43.641Z,96588.44
2023-02-03T14:28:20.059Z,96600.06
2023-02-03T14:31:06.545Z,96601.75
2023-02-03T14:34:06.168Z,96641.41
2023-02-03T14:36:38.634Z,96649.28
2023-02-03T14:39:17.312Z,96646.56
2023-02-03T14:42:02.091Z,96650.22
2023-02-03T14:44:31.535Z,96658.31
2023-02-03T14:47:08.273Z,96639.09
2023-02-03T14:50:03.559Z,96618.72
2023-02-03T14:52:44.927Z,96594.41
2023-02-03T14:55:28.753Z,96606.19
2023-02-03T14:58:02.387Z,96604.06
2023-02-03T15:00:34.636Z,96603.34
2023-02-03T15:03:09.971Z,96593.41
2023-02-03T15:05:44.163Z,96604.16
2023-02-03T15:08:39.986Z,96608.91
2023-02-03T15:11:23.362Z,96614.78
2023-02-03T15:13:49.970Z,96592.19
2023-02-03T15:16:20.124Z,96607.63
2023-02-03T15:18:55.095Z,96617.63
2023-02-03T15:21:24.893Z,96610.31
2023-02-03T15:23:52.747Z,96612.22
2023-02-03T15:26:27.327Z,96642.06
2023-02-03T15:28:59.544Z,96627.19
2023-02-03T15:31:34.036Z,96640.81
2023-02-03T15:34:07.868Z,96662.69
2023-02-03T15:36:49.557Z,96648.72
2023-02-03T15:39:27.058Z,96648.72
2023-02-03T15:41:56.765Z,96654.63
2023-02-03T15:44:39.235Z,96635.75
2023-02-03T15:47:28.246Z,96626.72
2023-02-03T15:50:06.561Z,96607.03
2023-02-03T15:52:38.010Z,96612.63
2023-02-03T15:55:24.349Z,96621.38
2023-02-03T15:57:51.222Z,96625.25
2023-02-03T16:00:35.163Z,96639.81
2023-02-03T16:03:03.225Z,96641.09
2023-02-03T16:05:33.425Z,96639.81
2023-02-03T16:08:27.159Z,96649.19
2023-02-03T16:10:53.722Z,96610.13
2023-02-03T16:13:25.832Z,96647.59
2023-02-03T16:16:15.083Z,96625.50
2023-02-03T16:18:54.299Z,96634.28
2023-02-03T16:21:50.792Z,96625.19
2023-02-03T16:24:32.873Z,96627.09
2023-02-03T16:27:27.667Z,96619.81
2023-02-03T16:30:33.624Z,96612.31
2023-02-03T16:33:28.388Z,96635.47
2023-02-03T16:36:21.097Z,96670.88
2023-02-03T16:39:08.357Z,96671.91
2023-02-03T16:41:55.357Z,96654.88
2023-02-03T16:44:40.441Z,96674.88
2023-02-03T16:47:44.749Z,96690.94
2023-02-03T16:50:41.725Z,96666.38
2023-02-03T16:53:20.230Z,96669.16
2023-02-03T16:55:47.817Z,96678.44
2023-02-03T16:58:14.287Z,96673.19
2023-02-03T17:00:42.802Z,96672.72
2023-02-03T17:03:14.574Z,96670.88
2023-02-03T17:05:44.251Z,96683.28
2023-02-03T17:08:11.256Z,96675.44
2023-02-03T17:10:39.702Z,96684.88
2023-02-03T17:13:07.867Z,96677.41
2023-02-03T17:15:39.161Z,96695.25
2023-02-03T17:18:05.707Z,96677.16
2023-02-03T17:20:32.176Z,96691.09
2023-02-03T17:22:58.692Z,96686.63
2023-02-03T17:25:25.358Z,96681.41
2023-02-03T17:27:51.815Z,96669.81
2023-02-03T17:30:18.459Z,96680.03
2023-02-03T17:32:44.882Z,96695.19
2023-02-03T17:35:11.500Z,96671.25
2023-02-03T17:37:37.961Z,96682.88
2023-02-03T17:54:07.185Z,96696.56
2023-02-03T17:56:35.660Z,96701.09
2023-02-03T17:59:04.760Z,96687.88
2023-02-03T18:01:32.221Z,96683.91
2023-02-03T18:04:04.548Z,96688.47
2023-02-03T18:06:35.094Z,96686.53
2023-02-03T18:09:07.467Z,96687.69
2023-02-03T18:11:35.421Z,96664.13
2023-02-03T18:14:02.500Z,96698.38
2023-02-03T18:16:33.034Z,96708.16
2023-02-03T18:19:00.911Z,96692.22
2023-02-03T18:21:27.466Z,96717.28
2023-02-03T18:23:59.315Z,96714.75
2023-02-03T18:26:28.772Z,96702.94
2023-02-03T18:28:55.887Z,96698.84
2023-02-03T18:31:22.445Z,96694.41
2023-02-03T18:33:49.607Z,96693.16
2023-02-03T18:36:16.764Z,96699.63
2023-02-03T18:38:45.118Z,96711.47
2023-02-03T18:41:17.778Z,96705.44
2023-02-03T18:43:45.297Z,96724.66
2023-02-03T18:46:15.867Z,96695.88
2023-02-03T18:48:42.393Z,96675.72
2023-02-03T18:51:10.771Z,96667.91
2023-02-03T18:53:38.318Z,96675.19
2023-02-03T18:56:09.366Z,96673.91
2023-02-03T18:58:40.139Z,96671.19
2023-02-03T19:01:07.142Z,96656.50
2023-02-03T19:03:34.369Z,96653.53
2023-02-03T19:06:00.990Z,96671.31
2023-02-03T19:08:27.674Z,96601.13
2023-02-03T19:10:56.046Z,96620.56
2023-02-03T19:13:24.025Z,96623.97
2023-02-03T19:15:51.607Z,96621.13
2023-02-03T19:18:18.152Z,96626.69
2023-02-03T19:20:44.936Z,96626.34
2023-02-03T19:23:12.308Z,96632.03
2023-02-03T19:25:39.109Z,96644.22
2023-02-03T19:28:14.332Z,96659.47
2023-02-03T19:30:44.451Z,96649.56
2023-02-03T19:33:11.370Z,96653.06
2023-02-03T19:35:39.148Z,96657.06
2023-02-03T19:38:05.718Z,96670.38
2023-02-03T19:40:32.592Z,96652.38
2023-02-03T19:42:59.564Z,96640.00
2023-02-03T19:45:26.953Z,96584.97
2023-02-03T19:47:53.845Z,96543.66
2023-02-03T19:50:20.672Z,96610.75
2023-02-03T19:52:52.315Z,96645.31
2023-02-03T19:55:40.936Z,96616.44
2023-02-03T19:58:11.399Z,96607.22
2023-02-03T20:00:38.192Z,96583.69
2023-02-03T20:03:06.215Z,96608.25
2023-02-03T20:05:34.126Z,96635.69
2023-02-03T20:08:00.891Z,96631.69
2023-02-03T20:10:28.245Z,96662.38
2023-02-03T20:12:55.114Z,96666.03
2023-02-03T20:15:21.792Z,96665.47
2023-02-03T20:17:49.154Z,96626.09
2023-02-03T20:20:20.353Z,96641.13
2023-02-03T20:22:47.176Z,96641.47
2023-02-03T20:25:14.273Z,96650.09
2023-02-03T20:27:40.919Z,96663.31
2023-02-03T20:30:07.887Z,96649.78
2023-02-03T20:32:34.620Z,96673.44
2023-02-03T20:35:03.815Z,96660.25
2023-02-03T20:37:30.415Z,96651.69
2023-02-03T20:39:56.852Z,96653.53
2023-02-03T20:42:23.323Z,96652.28
2023-02-03T20:44:49.796Z,96672.41
2023-02-03T20:47:18.748Z,96699.38
2023-02-03T20:49:46.201Z,96698.69
2023-02-03T20:52:14.460Z,96704.59
2023-02-03T20:54:41.820Z,96690.03
2023-02-03T20:57:17.351Z,96697.09
2023-02-03T20:59:44.894Z,96687.78
2023-02-03T21:02:19.401Z,96695.94
2023-02-03T21:04:58.010Z,96707.00
2023-02-03T21:07:27.519Z,96694.50
2023-02-03T21:09:54.778Z,96696.41
2023-02-03T21:12:21.482Z,96700.28
2023-02-03T21:14:48.931Z,96712.91
2023-02-03T21:17:25.870Z,96721.91
2023-02-03T21:19:53.889Z,96716.81
2023-02-03T21:22:37.808Z,96720.66
2023-02-03T21:25:04.647Z,96702.66
2023-02-03T21:27:33.390Z,96711.44
2023-02-03T21:30:02.880Z,96705.16
2023-02-03T21:32:40.682Z,96698.03
2023-02-03T21:35:31.788Z,96670.50
2023-02-03T21:38:03.941Z,96659.56
2023-02-03T21:40:34.633Z,96672.31
2023-02-03T21:43:03.171Z,96680.94
2023-02-03T21:45:41.047Z,96663.56
2023-02-03T21:48:30.693Z,96682.34
2023-02-03T21:51:01.998Z,96678.69
2023-02-03T21:53:31.951Z,96675.97
2023-02-03T21:56:15.282Z,96693.00
2023-02-03T21:58:44.184Z,96684.13
2023-02-03T22:01:16.342Z,96692.09
2023-02-03T22:03:51.525Z,96687.78
2023-02-03T22:06:25.426Z,96691.88
2023-02-03T22:08:54.556Z,96691.31
2023-02-03T22:11:22.860Z,96700.19
2023-02-03T22:13:49.651Z,96702.56
2023-02-03T22:16:17.471Z,96702.09
2023-02-03T22:18:45.944Z,96709.47
2023-02-03T22:21:12.779Z,96704.13
2023-02-03T22:23:40.522Z,96685.44
2023-02-03T22:26:08.268Z,96691.94
2023-02-03T22:28:35.285Z,96690.13
2023-02-03T22:31:04.246Z,96674.38
2023-02-03T22:33:31.942Z,96692.28
2023-02-03T22:35:58.687Z,96692.97
2023-02-03T22:38:25.913Z,96700.34
2023-02-03T22:40:53.165Z,96702.97
2023-02-03T22:43:19.592Z,96704.78
2023-02-03T22:45:46.337Z,96695.47
2023-02-03T22:48:12.803Z,96708.75
2023-02-03T22:50:39.472Z,96729.34
2023-02-03T22:53:07.053Z,96720.09
2023-02-03T22:55:33.624Z,96738.75
2023-02-03T22:58:00.131Z,96727.00
2023-02-03T23:00:27.254Z,96737.16
2023-02-03T23:02:54.533Z,96725.44
2023-02-03T23:05:21.762Z,96730.66
2023-02-03T23:07:49.015Z,96739.84
2023-02-03T23:10:18.860Z,96752.06
2023-02-03T23:12:45.615Z,96764.31
2023-02-03T23:15:13.632Z,96763.75
2023-02-03T23:17:40.834Z,96762.50
2023-02-03T23:20:09.147Z,96758.09
2023-02-03T23:22:35.688Z,96771.38
2023-02-03T23:25:02.647Z,96774.22
2023-02-03T23:27:29.138Z,96785.38
2023-02-03T23:29:55.608Z,96790.41
2023-02-03T23:32:22.166Z,96794.03
2023-02-03T23:35:07.453Z,96782.34
2023-02-03T23:37:33.957Z,96799.97
2023-02-03T23:40:00.540Z,96797.59
2023-02-03T23:42:27.060Z,96817.56
2023-02-03T23:44:53.515Z,96811.53
2023-02-03T23:47:19.997Z,96807.75
2023-02-03T23:49:46.459Z,96835.72
2023-02-03T23:52:12.943Z,96815.03
2023-02-03T23:54:39.428Z,96808.88
2023-02-03T23:57:05.990Z,96814.47
2023-02-03T23:59:32.421Z,96823.31
